Impacts METAR Board INFO
IDs:

KFLL - Ft Lauderdale-Hollyw, FL, US

Updated at: 1907 UTC 20 Jan 2018
Potential Impact None Slight Moderate High
Time20/07Z 20/08Z 20/09Z 20/10Z 20/11Z 20/12Z 20/13Z 20/14Z 20/15Z 20/16Z 20/17Z 20/18Z 20/19Z
VIS10 10 10 10 10 10 10 10 10 10 10 10 10
CIG38 36 41 40 36 37 37 33 44 50 32 28 36
CoverBKNBKNBKNBKNBKNBKNOVCOVCBKNBKNOVCOVCOVC
FltCatVFRVFRVFRVFRVFRVFRVFRVFRVFRVFRVFRMVFRVFR
WX--------------------------
WDir33029034031031090809060909080130
WSpd4 3 6 3 3 3 10 11 8 9 7 8 9
WGst-- -- -- -- -- -- -- -- -- -- -- -- --
Raw hourly METARs
KFLL 200653Z 33004KT 10SM BKN038 BKN220 16/13 A3021 RMK AO2 SLP229 T01560133
KFLL 200753Z 29003KT 10SM BKN036 15/14 A3019 RMK AO2 SLP223 T01500139
KFLL 200853Z 34006KT 10SM FEW030 BKN041 15/14 A3019 RMK AO2 SLP223 T01500144 55009
KFLL 200953Z 31003KT 10SM BKN040 16/14 A3019 RMK AO2 SLP223 T01560144
KFLL 201053Z 31003KT 10SM BKN036 19/14 A3018 RMK AO2 SLP218 T01890144
KFLL 201153Z 09003KT 10SM BKN037 19/14 A3018 RMK AO2 SLP220 T01890139 10194 20144 55004
KFLL 201253Z 08010KT 10SM SCT025 BKN037 OVC200 19/16 A3019 RMK AO2 SLP223 T01940156
KFLL 201353Z 09011KT 10SM BKN033 BKN041 OVC250 20/16 A3023 RMK AO2 SLP235 T02000156
KFLL 201453Z 06008KT 10SM SCT029 BKN044 BKN250 21/17 A3025 RMK AO2 SLP242 T02060167 53023
KFLL 201553Z 09009KT 10SM FEW028 FEW034 BKN050 BKN250 22/16 A3024 RMK AO2 SLP241 T02220161
KFLL 201653Z 09007KT 10SM BKN032 BKN049 OVC250 22/16 A3024 RMK AO2 SLP239 T02220161
KFLL 201803Z 08008KT 10SM BKN028 OVC041 22/17 A3021 RMK AO2 T02170172
KFLL 201853Z 13009KT 10SM BKN036 OVC047 22/16 A3019 RMK AO2 SLP224 T02170156